Time;durP1;ratioP1;P1;durP2;ratioP2;P2;SDS_P1;SDS_P2;PMS_P1;PMS_P2;Temp;Humidity;BMP_temperature;BMP_pressure;BME280_temperature;BME280_humidity;BME280_pressure;Samples;Min_cycle;Max_cycle;Signal;HPM_P1;HPM_P2
2022/05/14 00:00:17;;;;;;;;;;;;;;;22.59;56.80;100059.63;2085144;28;20011;-39
2022/05/14 00:01:17;;;;;;;;;;;;;;;22.60;57.00;100063.22;2083630;28;19916;-39
2022/05/14 00:02:19;;;;;;;;;;;;;;;22.60;56.89;100068.72;2081829;28;19931;-40
2022/05/14 00:03:20;;;;;;;;;;;;;;;22.59;56.85;100067.84;2088806;28;19927;-40
2022/05/14 00:04:21;;;;;;;;;;;;;;;22.58;56.86;100068.88;2084594;28;20230;-40
2022/05/14 00:05:22;;;;;;;;;;;;;;;22.59;56.93;100069.75;2086528;28;19924;-40
2022/05/14 00:06:24;;;;;;;;;;;;;;;22.58;57.01;100063.38;2085107;28;19915;-40
2022/05/14 00:07:24;;;;;;;;;;;;;;;22.57;56.87;100061.69;2086319;28;19967;-40
2022/05/14 00:08:24;;;;;;;;;;;;;;;22.58;56.83;100059.78;2084687;28;19920;-40
2022/05/14 00:09:25;;;;;;;;;;;;;;;22.58;56.69;100062.53;2085635;28;19917;-40
2022/05/14 00:10:28;;;;;;;;;;;;;;;22.57;56.88;100058.94;2082252;28;20126;-40
2022/05/14 00:13:05;;;;;;;;;;;;;;;22.57;57.04;100058.94;2083476;28;19916;-40
2022/05/14 00:14:06;;;;;;;;;;;;;;;22.57;56.75;100061.69;2085767;28;19917;-41
2022/05/14 00:15:07;;;;;;;;;;;;;;;22.58;56.97;100068.03;2085244;28;19978;-40
2022/05/14 00:16:08;;;;;;;;;;;;;;;22.58;56.82;100062.53;2084747;28;20437;-40
2022/05/14 00:17:09;;;;;;;;;;;;;;;22.57;56.94;100067.16;2086126;28;20205;-40
2022/05/14 00:18:09;;;;;;;;;;;;;;;22.57;56.82;100067.16;2086219;28;19963;-40
2022/05/14 00:19:10;;;;;;;;;;;;;;;22.59;56.95;100069.75;2087142;28;19931;-40
2022/05/14 00:20:10;;;;;;;;;;;;;;;22.57;56.91;100067.16;2080480;28;19920;-40
2022/05/14 00:21:11;;;;;;;;;;;;;;;22.57;56.86;100072.66;2084939;28;19964;-40
2022/05/14 00:22:11;;;;;;;;;;;;;;;22.56;56.87;100076.41;2085358;28;19958;-40
2022/05/14 00:23:12;;;;;;;;;;;;;;;22.58;57.06;100074.38;2083325;28;19921;-40
2022/05/14 00:24:12;;;;;;;;;;;;;;;22.57;56.88;100069.91;2086540;28;19917;-40
2022/05/14 00:25:13;;;;;;;;;;;;;;;22.55;56.82;100069.22;2083176;28;19916;-39
2022/05/14 00:26:13;;;;;;;;;;;;;;;22.58;57.01;100068.88;2082275;28;20706;-39
2022/05/14 00:27:14;;;;;;;;;;;;;;;22.55;57.05;100069.22;2078987;28;19925;-40
2022/05/14 00:28:15;;;;;;;;;;;;;;;22.55;57.06;100068.38;2085736;28;19916;-40
2022/05/14 00:29:15;;;;;;;;;;;;;;;22.57;56.88;100072.66;2086337;28;20261;-40
2022/05/14 00:30:16;;;;;;;;;;;;;;;22.56;57.00;100070.94;2084539;28;19947;-40
2022/05/14 00:31:17;;;;;;;;;;;;;;;22.55;56.92;100063.72;2078897;28;19917;-40
2022/05/14 00:32:17;;;;;;;;;;;;;;;22.55;56.98;100069.22;2082634;28;19959;-40
2022/05/14 00:33:18;;;;;;;;;;;;;;;22.56;56.98;100064.59;2082763;28;19923;-40
2022/05/14 00:34:18;;;;;;;;;;;;;;;22.55;56.92;100065.63;2083666;28;19920;-40
2022/05/14 00:35:19;;;;;;;;;;;;;;;22.55;56.85;100063.72;2086966;28;20223;-40
2022/05/14 00:36:19;;;;;;;;;;;;;;;22.55;56.92;100071.97;2080847;28;19917;-40
2022/05/14 00:37:19;;;;;;;;;;;;;;;22.55;57.04;100069.22;2083699;28;20268;-40
2022/05/14 00:38:20;;;;;;;;;;;;;;;22.54;57.01;100062.03;2079893;28;20395;-40
2022/05/14 00:39:20;;;;;;;;;;;;;;;22.53;57.06;100060.28;2085330;28;19923;-40
2022/05/14 00:40:26;;;;;;;;;;;;;;;22.54;56.89;100062.03;2084835;28;19913;-40
2022/05/14 00:41:27;;;;;;;;;;;;;;;22.54;56.93;100063.88;2085581;28;20329;-40
2022/05/14 00:42:27;;;;;;;;;;;;;;;22.54;56.93;100066.63;2085260;28;19985;-40
2022/05/14 00:43:28;;;;;;;;;;;;;;;22.53;57.06;100063.03;2085786;28;19916;-40
2022/05/14 00:44:29;;;;;;;;;;;;;;;22.54;57.12;100066.63;2079715;28;19917;-40
2022/05/14 00:45:30;;;;;;;;;;;;;;;22.53;56.93;100062.19;2081757;28;19923;-40
2022/05/14 00:46:40;;;;;;;;;;;;;;;22.52;57.15;100061.34;2084157;28;19923;-40
2022/05/14 00:47:42;;;;;;;;;;;;;;;22.52;56.98;100061.34;2082102;28;19932;-40
2022/05/14 00:48:43;;;;;;;;;;;;;;;22.52;57.03;100061.34;2084291;28;20345;-40
2022/05/14 00:49:44;;;;;;;;;;;;;;;22.53;57.01;100054.81;2085794;28;20039;-40
2022/05/14 00:50:50;;;;;;;;;;;;;;;22.52;56.99;100060.50;2081881;28;19927;-40
2022/05/14 00:51:50;;;;;;;;;;;;;;;22.52;57.11;100046.75;2082020;28;19920;-40
2022/05/14 00:53:02;;;;;;;;;;;;;;;22.52;57.16;100053.09;2084293;28;19921;-40
2022/05/14 00:54:06;;;;;;;;;;;;;;;22.53;57.16;100049.31;2085387;28;19908;-40
2022/05/14 00:55:06;;;;;;;;;;;;;;;22.52;57.15;100047.59;2085560;28;20195;-40
2022/05/14 00:56:09;;;;;;;;;;;;;;;22.52;56.94;100047.59;2079563;28;19917;-40
2022/05/14 00:57:11;;;;;;;;;;;;;;;22.52;57.19;100049.50;2082782;28;20018;-40
2022/05/14 00:58:35;;;;;;;;;;;;;;;22.51;57.01;100048.63;2083367;28;20385;-40
2022/05/14 00:59:36;;;;;;;;;;;;;;;22.52;57.02;100049.50;2076766;28;19958;-40
2022/05/14 01:00:36;;;;;;;;;;;;;;;22.52;57.13;100044.00;2085359;28;19928;-40
2022/05/14 01:01:37;;;;;;;;;;;;;;;22.51;57.08;100045.88;2085414;28;19998;-40
2022/05/14 01:02:37;;;;;;;;;;;;;;;22.51;56.89;100045.03;2081876;28;20959;-40
2022/05/14 01:03:38;;;;;;;;;;;;;;;22.51;57.04;100045.88;2086055;28;20019;-40
2022/05/14 01:04:42;;;;;;;;;;;;;;;22.52;57.08;100046.75;2081079;28;19959;-40
2022/05/14 01:05:43;;;;;;;;;;;;;;;22.51;57.11;100048.63;2081813;28;19981;-40
2022/05/14 01:06:52;;;;;;;;;;;;;;;22.50;57.02;100038.69;2084676;28;20756;-40
2022/05/14 01:07:54;;;;;;;;;;;;;;;22.51;57.04;100034.03;2081602;28;20561;-40
2022/05/14 01:08:54;;;;;;;;;;;;;;;22.51;57.17;100045.88;2084535;28;19908;-40
2022/05/14 01:09:59;;;;;;;;;;;;;;;22.51;56.92;100034.03;2079392;28;19916;-40
2022/05/14 01:10:59;;;;;;;;;;;;;;;22.50;57.17;100033.19;2085000;28;19923;-40
2022/05/14 01:12:00;;;;;;;;;;;;;;;22.51;57.15;100036.78;2077783;28;20238;-40
2022/05/14 01:13:01;;;;;;;;;;;;;;;22.50;57.15;100033.19;2077457;28;19970;-40
2022/05/14 01:14:01;;;;;;;;;;;;;;;22.49;57.24;100031.47;2085617;28;20038;-40
2022/05/14 01:15:13;;;;;;;;;;;;;;;22.50;57.32;100024.09;2081719;28;19921;-44
2022/05/14 01:16:13;;;;;;;;;;;;;;;22.48;57.11;100029.75;2082830;28;20353;-40
2022/05/14 01:17:14;;;;;;;;;;;;;;;22.50;57.12;100027.69;2084474;28;19917;-40
2022/05/14 01:18:15;;;;;;;;;;;;;;;22.49;57.13;100031.47;2082646;28;19923;-41
2022/05/14 01:19:15;;;;;;;;;;;;;;;22.48;57.26;100021.50;2082367;28;19917;-40
2022/05/14 01:20:17;;;;;;;;;;;;;;;22.48;57.28;100024.25;2083129;28;19923;-40
2022/05/14 01:21:32;;;;;;;;;;;;;;;22.48;57.26;100029.75;2083594;28;19962;-41
2022/05/14 01:22:32;;;;;;;;;;;;;;;22.48;57.19;100029.75;2084459;28;20283;-40
2022/05/14 01:26:46;;;;;;;;;;;;;;;22.47;57.21;100017.06;2078758;28;20239;-40
2022/05/14 01:27:48;;;;;;;;;;;;;;;22.47;57.23;100011.56;2082392;28;19924;-40
2022/05/14 01:28:48;;;;;;;;;;;;;;;22.46;57.15;100016.22;2085611;28;20055;-40
2022/05/14 01:29:49;;;;;;;;;;;;;;;22.47;57.14;100011.56;2082768;28;19916;-40
2022/05/14 01:30:51;;;;;;;;;;;;;;;22.46;57.07;100016.22;2086052;28;20330;-40
2022/05/14 01:31:53;;;;;;;;;;;;;;;22.47;57.00;100011.56;2085043;28;19908;-40
2022/05/14 01:33:05;;;;;;;;;;;;;;;22.46;57.25;99999.72;2091587;28;20001;-40
2022/05/14 01:34:08;;;;;;;;;;;;;;;22.47;57.13;100006.06;2079091;28;19931;-40
2022/05/14 01:35:09;;;;;;;;;;;;;;;22.46;56.99;100004.34;2083932;28;19909;-40
2022/05/14 01:36:09;;;;;;;;;;;;;;;22.46;57.20;100009.81;2084467;28;21995;-40
2022/05/14 01:37:10;;;;;;;;;;;;;;;22.46;57.15;100004.34;2080768;28;19924;-40
2022/05/14 01:38:11;;;;;;;;;;;;;;;22.47;57.20;100011.56;2082123;28;19916;-40
2022/05/14 01:39:11;;;;;;;;;;;;;;;22.46;57.03;99998.84;2083894;28;20329;-40
2022/05/14 01:40:12;;;;;;;;;;;;;;;22.46;57.03;100005.22;2080687;28;19912;-40
2022/05/14 01:41:12;;;;;;;;;;;;;;;22.46;57.16;99999.72;2082531;28;20020;-40
2022/05/14 01:42:12;;;;;;;;;;;;;;;22.46;56.98;100005.22;2082723;28;19921;-40
2022/05/14 01:43:13;;;;;;;;;;;;;;;22.46;56.99;99993.34;2084257;28;19950;-40
2022/05/14 01:44:14;;;;;;;;;;;;;;;22.46;57.06;99993.34;2080504;28;19948;-40
2022/05/14 01:45:14;;;;;;;;;;;;;;;22.46;57.09;99993.34;2078776;28;19924;-40
2022/05/14 01:46:15;;;;;;;;;;;;;;;22.45;57.03;99989.75;2086310;28;19955;-40
2022/05/14 01:47:15;;;;;;;;;;;;;;;22.45;57.15;99997.13;2081482;28;19920;-40
2022/05/14 01:48:15;;;;;;;;;;;;;;;22.45;57.02;99991.66;2085161;28;19939;-40
2022/05/14 01:49:16;;;;;;;;;;;;;;;22.46;56.93;99987.84;2085042;28;19912;-40
2022/05/14 01:50:16;;;;;;;;;;;;;;;22.46;57.16;99993.34;2080591;28;19923;-40
2022/05/14 01:51:17;;;;;;;;;;;;;;;22.46;57.15;99990.59;2086199;28;20046;-40
2022/05/14 01:52:17;;;;;;;;;;;;;;;22.44;57.19;99981.69;2083585;28;19927;-40
2022/05/14 01:53:17;;;;;;;;;;;;;;;22.46;57.12;99982.38;2083728;28;20549;-40
2022/05/14 01:54:18;;;;;;;;;;;;;;;22.45;57.18;99988.91;2088053;28;19920;-40
2022/05/14 01:55:18;;;;;;;;;;;;;;;22.45;57.07;99986.16;2080710;28;19927;-40
2022/05/14 01:56:18;;;;;;;;;;;;;;;22.45;57.24;99986.16;2076881;28;19952;-40
2022/05/14 01:57:19;;;;;;;;;;;;;;;22.46;57.08;99985.09;2080126;28;20305;-40
2022/05/14 01:58:37;;;;;;;;;;;;;;;22.44;57.22;99978.94;2081381;28;19923;-40
2022/05/14 01:59:37;;;;;;;;;;;;;;;22.44;56.98;99976.19;2078587;28;20456;-40
2022/05/14 02:00:38;;;;;;;;;;;;;;;22.44;57.17;99978.94;2086658;28;20420;-40
2022/05/14 02:01:38;;;;;;;;;;;;;;;22.43;57.23;99971.72;2085141;28;19916;-40
2022/05/14 02:02:38;;;;;;;;;;;;;;;22.43;57.23;99975.34;2083985;28;20202;-40
2022/05/14 02:03:40;;;;;;;;;;;;;;;22.43;57.18;99972.59;2080710;28;19921;-40
2022/05/14 02:04:40;;;;;;;;;;;;;;;22.43;57.19;99971.72;2083643;28;20411;-40
2022/05/14 02:05:40;;;;;;;;;;;;;;;22.44;57.13;99973.44;2084878;28;20247;-40
2022/05/14 02:06:41;;;;;;;;;;;;;;;22.42;57.07;99970.03;2082232;28;19985;-40
2022/05/14 02:07:42;;;;;;;;;;;;;;;22.42;57.20;99964.53;2084266;28;19963;-40
2022/05/14 02:08:42;;;;;;;;;;;;;;;22.42;57.20;99959.91;2083702;28;19920;-40
2022/05/14 02:09:42;;;;;;;;;;;;;;;22.42;57.13;99970.88;2082491;28;20397;-40
2022/05/14 02:10:43;;;;;;;;;;;;;;;22.42;57.23;99959.06;2085565;28;20011;-40
2022/05/14 02:11:43;;;;;;;;;;;;;;;22.43;57.16;99966.25;2085138;28;19920;-40
2022/05/14 02:12:44;;;;;;;;;;;;;;;22.43;57.14;99960.75;2083562;28;19981;-40
2022/05/14 02:13:44;;;;;;;;;;;;;;;22.43;57.13;99960.75;2085006;28;19920;-40
2022/05/14 02:14:45;;;;;;;;;;;;;;;22.42;57.24;99961.78;2083243;28;19920;-40
2022/05/14 02:15:46;;;;;;;;;;;;;;;22.42;57.18;99959.06;2085515;28;20544;-40
2022/05/14 02:16:47;;;;;;;;;;;;;;;22.43;57.07;99960.75;2083539;28;19920;-40
2022/05/14 02:17:47;;;;;;;;;;;;;;;22.42;57.01;99959.06;2084567;28;19920;-42
2022/05/14 02:18:47;;;;;;;;;;;;;;;22.42;57.11;99964.53;2084141;28;19950;-40
2022/05/14 02:19:49;;;;;;;;;;;;;;;22.42;57.11;99964.53;2082337;28;20772;-40
2022/05/14 02:20:50;;;;;;;;;;;;;;;22.43;57.14;99960.75;2084179;28;19923;-40
2022/05/14 02:21:50;;;;;;;;;;;;;;;22.42;57.07;99959.06;2082915;28;19920;-40
2022/05/14 02:22:51;;;;;;;;;;;;;;;22.42;57.24;99964.53;2081192;28;19916;-40
2022/05/14 02:23:52;;;;;;;;;;;;;;;22.41;57.18;99963.66;2081932;28;19908;-40
2022/05/14 02:24:54;;;;;;;;;;;;;;;22.41;57.23;99957.31;2083827;28;20534;-40
2022/05/14 02:25:54;;;;;;;;;;;;;;;22.41;57.04;99951.81;2079242;28;19939;-40
2022/05/14 02:26:55;;;;;;;;;;;;;;;22.41;57.21;99955.41;2078114;28;20786;-40
2022/05/14 02:27:55;;;;;;;;;;;;;;;22.42;57.02;99959.06;2085134;28;20401;-40
2022/05/14 02:28:56;;;;;;;;;;;;;;;22.41;57.13;99958.16;2083793;28;19935;-40
2022/05/14 02:29:56;;;;;;;;;;;;;;;22.40;57.06;99955.63;2084866;28;20141;-40
2022/05/14 02:30:56;;;;;;;;;;;;;;;22.41;57.26;99960.06;2084562;28;19943;-40
2022/05/14 02:31:56;;;;;;;;;;;;;;;22.40;57.19;99955.63;2084268;28;19940;-40
2022/05/14 02:32:57;;;;;;;;;;;;;;;22.41;57.25;99962.81;2084147;28;20212;-40
2022/05/14 02:33:57;;;;;;;;;;;;;;;22.41;57.16;99958.16;2083416;28;20738;-40
2022/05/14 02:34:59;;;;;;;;;;;;;;;22.40;57.28;99955.63;2082635;28;19917;-40
2022/05/14 02:35:59;;;;;;;;;;;;;;;22.41;57.21;99954.56;2081271;28;19986;-40
2022/05/14 02:36:59;;;;;;;;;;;;;;;22.39;57.15;99953.88;2080748;28;19920;-40
2022/05/14 02:38:00;;;;;;;;;;;;;;;22.40;57.20;99956.47;2084566;28;20196;-40
2022/05/14 02:39:00;;;;;;;;;;;;;;;22.40;57.21;99955.63;2084039;28;19916;-40
2022/05/14 02:40:01;;;;;;;;;;;;;;;22.39;57.28;99956.63;2079186;28;20415;-40
2022/05/14 02:41:01;;;;;;;;;;;;;;;22.39;57.27;99953.88;2084241;28;19921;-40
2022/05/14 02:42:01;;;;;;;;;;;;;;;22.38;57.15;99953.03;2081842;28;19917;-40
2022/05/14 02:43:02;;;;;;;;;;;;;;;22.37;57.29;99951.34;2085459;28;19920;-40
2022/05/14 02:44:02;;;;;;;;;;;;;;;22.38;57.28;99958.53;2080313;28;19933;-40
2022/05/14 02:45:03;;;;;;;;;;;;;;;22.38;57.08;99963.16;2077944;28;19916;-40
2022/05/14 02:46:03;;;;;;;;;;;;;;;22.38;57.28;99960.41;2085304;28;19912;-40
2022/05/14 02:47:04;;;;;;;;;;;;;;;22.38;57.12;99954.94;2081233;28;20427;-40
2022/05/14 02:48:04;;;;;;;;;;;;;;;22.38;57.12;99957.66;2083173;28;19927;-40
2022/05/14 02:49:05;;;;;;;;;;;;;;;22.37;57.30;99950.47;2081690;28;19939;-40
2022/05/14 02:50:06;;;;;;;;;;;;;;;22.38;57.27;99954.94;2081319;28;19930;-40
2022/05/14 02:51:06;;;;;;;;;;;;;;;22.38;57.26;99953.03;2085680;28;19947;-41
2022/05/14 02:52:08;;;;;;;;;;;;;;;22.37;57.28;99947.72;2080384;28;19912;-40
2022/05/14 02:53:09;;;;;;;;;;;;;;;22.37;57.11;99943.09;2080407;28;20068;-40
2022/05/14 02:54:09;;;;;;;;;;;;;;;22.37;57.22;99939.50;2081650;28;20181;-40
2022/05/14 02:55:09;;;;;;;;;;;;;;;22.37;57.05;99945.00;2082033;28;19916;-40
2022/05/14 02:56:10;;;;;;;;;;;;;;;22.36;57.11;99938.63;2083929;28;19915;-40
2022/05/14 02:57:10;;;;;;;;;;;;;;;22.37;57.06;99942.25;2082747;28;20425;-40
2022/05/14 02:58:10;;;;;;;;;;;;;;;22.37;57.09;99945.84;2084960;28;19909;-40
2022/05/14 02:59:11;;;;;;;;;;;;;;;22.37;57.07;99950.47;2082609;28;20345;-40
2022/05/14 03:00:12;;;;;;;;;;;;;;;22.38;56.99;99946.69;2081904;28;20014;-40
2022/05/14 03:01:13;;;;;;;;;;;;;;;22.38;57.15;99953.03;2083246;28;19922;-40
2022/05/14 03:02:13;;;;;;;;;;;;;;;22.38;57.20;99946.69;2080047;28;19924;-40
2022/05/14 03:03:13;;;;;;;;;;;;;;;22.38;56.92;99960.41;2084236;28;20170;-40
2022/05/14 03:04:15;;;;;;;;;;;;;;;22.38;57.15;99957.66;2083645;28;20269;-40
2022/05/14 03:05:19;;;;;;;;;;;;;;;22.37;56.91;99955.97;2083950;28;19905;-40
2022/05/14 03:06:19;;;;;;;;;;;;;;;22.38;56.98;99963.16;2083875;28;19951;-40
2022/05/14 03:07:19;;;;;;;;;;;;;;;22.38;56.97;99954.94;2081114;28;19936;-40
2022/05/14 03:08:20;;;;;;;;;;;;;;;22.37;56.97;99961.47;2082314;28;19921;-40
2022/05/14 03:09:20;;;;;;;;;;;;;;;22.37;57.01;99954.06;2082089;28;19963;-40
2022/05/14 03:10:21;;;;;;;;;;;;;;;22.38;57.03;99963.16;2081670;28;19940;-40
2022/05/14 03:11:21;;;;;;;;;;;;;;;22.37;56.93;99958.72;2079069;28;19952;-41
2022/05/14 03:12:22;;;;;;;;;;;;;;;22.36;57.01;99955.09;2080459;28;20030;-41
2022/05/14 03:13:22;;;;;;;;;;;;;;;22.37;57.01;99950.47;2082909;28;19943;-40
2022/05/14 03:14:22;;;;;;;;;;;;;;;22.37;57.03;99950.47;2083473;28;20281;-41
2022/05/14 03:15:23;;;;;;;;;;;;;;;22.37;56.99;99950.47;2079114;28;20424;-41
2022/05/14 03:16:23;;;;;;;;;;;;;;;22.36;57.09;99948.75;2085771;28;20093;-40
2022/05/14 03:17:23;;;;;;;;;;;;;;;22.37;57.03;99958.72;2083364;28;20443;-40
2022/05/14 03:18:24;;;;;;;;;;;;;;;22.36;57.14;99957.84;2083587;28;20549;-41
2022/05/14 03:19:24;;;;;;;;;;;;;;;22.36;57.04;99959.72;2079181;28;20022;-40
2022/05/14 03:20:25;;;;;;;;;;;;;;;22.36;57.04;99959.72;2077621;28;20251;-40
2022/05/14 03:21:25;;;;;;;;;;;;;;;22.35;57.25;99958.03;2083429;28;19921;-40
2022/05/14 03:22:25;;;;;;;;;;;;;;;22.35;57.17;99966.28;2084931;28;19915;-40
2022/05/14 03:23:26;;;;;;;;;;;;;;;22.35;57.15;99964.38;2085169;28;19916;-40
2022/05/14 03:24:26;;;;;;;;;;;;;;;22.34;57.03;99961.78;2079346;28;20574;-40
2022/05/14 03:25:26;;;;;;;;;;;;;;;22.34;57.12;99962.69;2085133;28;19909;-41
2022/05/14 03:26:26;;;;;;;;;;;;;;;22.34;57.19;99961.78;2083984;28;19917;-40
2022/05/14 03:27:27;;;;;;;;;;;;;;;22.33;57.25;99963.69;2083664;28;19946;-40
2022/05/14 03:28:27;;;;;;;;;;;;;;;22.34;57.24;99967.28;2084691;28;19923;-40
2022/05/14 03:29:28;;;;;;;;;;;;;;;22.33;57.24;99962.84;2084639;28;19983;-40
2022/05/14 03:30:28;;;;;;;;;;;;;;;22.32;57.09;99959.25;2083102;28;20256;-40
2022/05/14 03:31:29;;;;;;;;;;;;;;;22.33;57.33;99963.69;2083465;28;19925;-40
2022/05/14 03:32:29;;;;;;;;;;;;;;;22.33;57.04;99965.59;2080309;28;19921;-41
2022/05/14 03:33:31;;;;;;;;;;;;;;;22.33;57.25;99957.34;2078087;28;20880;-40
2022/05/14 03:34:32;;;;;;;;;;;;;;;22.33;57.31;99962.84;2082796;28;19970;-40
2022/05/14 03:35:32;;;;;;;;;;;;;;;22.33;57.25;99960.09;2085570;28;20264;-40
2022/05/14 03:36:33;;;;;;;;;;;;;;;22.32;57.24;99959.25;2082716;28;20261;-40
2022/05/14 03:37:33;;;;;;;;;;;;;;;22.33;57.08;99952.69;2084303;28;20430;-40
2022/05/14 03:38:33;;;;;;;;;;;;;;;22.33;57.20;99951.84;2084580;28;19923;-40
2022/05/14 03:39:34;;;;;;;;;;;;;;;22.32;57.22;99952.88;2081312;28;20365;-40
2022/05/14 03:40:34;;;;;;;;;;;;;;;22.32;57.03;99952.88;2084822;28;19940;-40
2022/05/14 03:41:34;;;;;;;;;;;;;;;22.32;57.26;99955.59;2082308;28;19917;-40
2022/05/14 03:42:35;;;;;;;;;;;;;;;22.32;57.10;99955.59;2079157;28;20259;-40
2022/05/14 03:43:37;;;;;;;;;;;;;;;22.32;57.13;99959.25;2083123;28;19982;-40
2022/05/14 03:44:37;;;;;;;;;;;;;;;22.32;57.34;99963.84;2084101;28;19927;-40
2022/05/14 03:45:37;;;;;;;;;;;;;;;22.32;57.18;99964.72;2080771;28;20349;-40
2022/05/14 03:46:38;;;;;;;;;;;;;;;22.32;57.33;99969.34;2080543;28;19920;-40
2022/05/14 03:47:38;;;;;;;;;;;;;;;22.32;57.16;99963.84;2083277;28;19943;-40
2022/05/14 03:48:38;;;;;;;;;;;;;;;22.32;57.21;99967.47;2084879;28;19935;-40
2022/05/14 03:49:39;;;;;;;;;;;;;;;22.32;57.14;99963.84;2083841;28;19917;-40
2022/05/14 03:50:39;;;;;;;;;;;;;;;22.31;57.10;99962.16;2082900;28;19978;-40
2022/05/14 03:51:39;;;;;;;;;;;;;;;22.32;57.21;99964.72;2082492;28;19921;-40
2022/05/14 03:52:40;;;;;;;;;;;;;;;22.33;57.10;99960.09;2084792;28;19971;-40
2022/05/14 03:53:40;;;;;;;;;;;;;;;22.31;57.11;99951.16;2083251;28;19913;-40
2022/05/14 03:54:43;;;;;;;;;;;;;;;22.31;57.14;99946.53;2082425;28;20208;-40
2022/05/14 03:55:43;;;;;;;;;;;;;;;22.31;57.19;99948.41;2082350;28;20247;-40
2022/05/14 03:56:43;;;;;;;;;;;;;;;22.30;57.20;99944.81;2081686;28;19920;-40
2022/05/14 03:57:43;;;;;;;;;;;;;;;22.31;57.20;99945.66;2083543;28;20331;-40
2022/05/14 03:58:44;;;;;;;;;;;;;;;22.31;57.06;99956.66;2078698;28;19996;-40
2022/05/14 03:59:44;;;;;;;;;;;;;;;22.30;57.07;99950.31;2083789;28;19919;-40
2022/05/14 04:00:44;;;;;;;;;;;;;;;22.30;57.10;99947.56;2082385;28;20264;-40
2022/05/14 04:01:45;;;;;;;;;;;;;;;22.30;57.23;99943.97;2083811;28;19916;-39
2022/05/14 04:02:45;;;;;;;;;;;;;;;22.29;57.17;99947.72;2082984;28;19923;-39
2022/05/14 04:03:46;;;;;;;;;;;;;;;22.29;57.34;99948.59;2078062;28;19960;-40
2022/05/14 04:04:46;;;;;;;;;;;;;;;22.29;57.14;99947.72;2083530;28;20248;-40
2022/05/14 04:05:47;;;;;;;;;;;;;;;22.29;57.14;99948.59;2082690;28;20340;-40
2022/05/14 04:06:47;;;;;;;;;;;;;;;22.29;57.28;99947.72;2083811;28;19917;-40
2022/05/14 04:07:48;;;;;;;;;;;;;;;22.28;57.24;99946.03;2081352;28;20760;-40
2022/05/14 04:08:48;;;;;;;;;;;;;;;22.27;57.08;99950.66;2083683;28;19916;-40
2022/05/14 04:09:48;;;;;;;;;;;;;;;22.28;57.21;99946.03;2083827;28;19947;-40
2022/05/14 04:10:48;;;;;;;;;;;;;;;22.28;57.23;99957.00;2084008;28;19920;-40
2022/05/14 04:11:49;;;;;;;;;;;;;;;22.26;57.24;99948.94;2084433;28;19916;-40
2022/05/14 04:12:49;;;;;;;;;;;;;;;22.27;57.20;99956.16;2081580;28;20556;-40
2022/05/14 04:13:50;;;;;;;;;;;;;;;22.26;57.25;99955.28;2085755;28;19917;-40
2022/05/14 04:14:50;;;;;;;;;;;;;;;22.28;57.28;99957.00;2083395;28;19916;-40
2022/05/14 04:15:51;;;;;;;;;;;;;;;22.28;57.31;99957.00;2083477;28;19923;-40
2022/05/14 04:16:51;;;;;;;;;;;;;;;22.27;57.31;99958.91;2081336;28;19917;-40
2022/05/14 04:17:52;;;;;;;;;;;;;;;22.26;57.31;99955.28;2077229;28;20575;-40
2022/05/14 04:18:52;;;;;;;;;;;;;;;22.27;57.39;99961.66;2076651;28;20341;-40
2022/05/14 04:19:52;;;;;;;;;;;;;;;22.28;57.31;99963.34;2079331;28;19908;-40
2022/05/14 04:20:57;;;;;;;;;;;;;;;22.28;57.25;99962.50;2075431;28;20411;-40
2022/05/14 04:21:57;;;;;;;;;;;;;;;22.28;57.29;99962.50;2080684;28;20325;-40
2022/05/14 04:22:57;;;;;;;;;;;;;;;22.28;57.35;99968.84;2083512;28;20196;-40
2022/05/14 04:23:59;;;;;;;;;;;;;;;22.28;57.32;99968.00;2084677;28;19970;-40
2022/05/14 04:24:59;;;;;;;;;;;;;;;22.29;57.13;99964.19;2080483;28;19916;-40
2022/05/14 04:25:59;;;;;;;;;;;;;;;22.28;57.13;99965.25;2082324;28;20019;-40
2022/05/14 04:27:00;;;;;;;;;;;;;;;22.28;57.10;99965.25;2085345;28;20307;-40
2022/05/14 04:28:00;;;;;;;;;;;;;;;22.29;57.15;99969.69;2083588;28;19916;-40
2022/05/14 04:29:00;;;;;;;;;;;;;;;22.28;57.18;99973.50;2086700;28;19916;-40
2022/05/14 04:30:01;;;;;;;;;;;;;;;22.27;57.29;99964.41;2084000;28;20261;-40
2022/05/14 04:31:01;;;;;;;;;;;;;;;22.26;57.04;99969.00;2085154;28;20228;-40
2022/05/14 04:32:01;;;;;;;;;;;;;;;22.26;57.05;99966.25;2078871;28;19927;-40
2022/05/14 04:33:01;;;;;;;;;;;;;;;22.25;57.06;99961.81;2080285;28;19917;-40
2022/05/14 04:34:02;;;;;;;;;;;;;;;22.26;57.22;99959.91;2085757;28;20559;-40
2022/05/14 04:35:02;;;;;;;;;;;;;;;22.28;57.29;99968.00;2084521;28;19991;-40
2022/05/14 04:36:03;;;;;;;;;;;;;;;22.26;57.25;99969.00;2083955;28;20384;-40
2022/05/14 04:37:03;;;;;;;;;;;;;;;22.26;57.22;99970.91;2085955;28;19916;-40
2022/05/14 04:38:03;;;;;;;;;;;;;;;22.25;57.21;99964.56;2084918;28;19923;-40
2022/05/14 04:39:04;;;;;;;;;;;;;;;22.26;57.15;99966.25;2084066;28;19920;-40
2022/05/14 04:40:05;;;;;;;;;;;;;;;22.25;57.27;99963.72;2085318;28;19917;-40
2022/05/14 04:41:06;;;;;;;;;;;;;;;22.25;57.24;99963.72;2082484;28;19966;-40
2022/05/14 04:42:08;;;;;;;;;;;;;;;22.25;57.18;99970.06;2084987;28;19916;-41
2022/05/14 04:43:09;;;;;;;;;;;;;;;22.25;57.14;99974.69;2083283;28;20102;-40
2022/05/14 04:44:09;;;;;;;;;;;;;;;22.24;57.15;99973.84;2079900;28;19917;-40
2022/05/14 04:45:10;;;;;;;;;;;;;;;22.23;57.17;99972.09;2080043;28;20329;-40
2022/05/14 04:46:10;;;;;;;;;;;;;;;22.24;57.24;99979.34;2082695;28;20314;-40
2022/05/14 04:47:11;;;;;;;;;;;;;;;22.24;57.11;99979.34;2082658;28;20020;-40
2022/05/14 04:48:12;;;;;;;;;;;;;;;22.23;57.22;99976.75;2085545;28;19962;-40
2022/05/14 04:49:12;;;;;;;;;;;;;;;22.24;57.27;99972.97;2084292;28;19916;-40
2022/05/14 04:50:14;;;;;;;;;;;;;;;22.22;57.02;99970.41;2082613;28;20706;-40
2022/05/14 04:51:14;;;;;;;;;;;;;;;22.22;57.14;99975.91;2077955;28;20315;-40
2022/05/14 04:52:15;;;;;;;;;;;;;;;22.23;57.16;99971.25;2083644;28;19924;-40
2022/05/14 04:53:15;;;;;;;;;;;;;;;22.22;57.08;99975.91;2086146;28;19912;-40
2022/05/14 04:54:16;;;;;;;;;;;;;;;22.22;57.22;99975.00;2081134;28;19962;-41
2022/05/14 04:55:16;;;;;;;;;;;;;;;22.21;57.11;99976.91;2083351;28;19960;-40
2022/05/14 04:56:16;;;;;;;;;;;;;;;22.22;57.19;99978.66;2085892;28;19928;-40
2022/05/14 04:57:16;;;;;;;;;;;;;;;22.22;57.12;99975.91;2084250;28;19908;-41
2022/05/14 04:58:17;;;;;;;;;;;;;;;22.22;57.14;99969.53;2083437;28;19917;-41
2022/05/14 04:59:17;;;;;;;;;;;;;;;22.22;57.39;99969.53;2085584;28;19932;-40
2022/05/14 05:00:18;;;;;;;;;;;;;;;22.22;57.22;99981.38;2083806;28;21199;-41
2022/05/14 05:01:18;;;;;;;;;;;;;;;22.23;57.28;99976.75;2084527;28;19962;-40
2022/05/14 05:03:37;;;;;;;;;;;;;;;22.20;57.06;99975.22;2073717;28;19924;-40
2022/05/14 05:04:38;;;;;;;;;;;;;;;22.22;57.04;99975.91;2080318;28;19916;-40
2022/05/14 05:05:38;;;;;;;;;;;;;;;22.21;57.13;99974.16;2078873;28;19916;-40
2022/05/14 05:06:38;;;;;;;;;;;;;;;22.22;57.08;99981.38;2082645;28;19916;-40
2022/05/14 05:07:39;;;;;;;;;;;;;;;22.22;57.33;99978.66;2083705;28;19970;-40
2022/05/14 05:08:39;;;;;;;;;;;;;;;22.22;57.08;99980.50;2079562;28;19916;-40
2022/05/14 05:09:40;;;;;;;;;;;;;;;22.22;57.18;99973.16;2082659;28;19954;-41
2022/05/14 05:10:40;;;;;;;;;;;;;;;22.22;57.19;99981.38;2085210;28;19921;-40
2022/05/14 05:11:41;;;;;;;;;;;;;;;22.22;57.02;99975.91;2082755;28;19931;-40
2022/05/14 05:12:41;;;;;;;;;;;;;;;22.22;57.24;99975.91;2083330;28;20389;-40
2022/05/14 05:13:41;;;;;;;;;;;;;;;22.21;57.12;99979.66;2084377;28;20299;-41
2022/05/14 05:14:42;;;;;;;;;;;;;;;22.21;57.03;99979.66;2085698;28;19908;-40
2022/05/14 05:15:42;;;;;;;;;;;;;;;22.21;57.12;99979.66;2081434;28;19921;-41
2022/05/14 05:16:43;;;;;;;;;;;;;;;22.21;57.22;99982.41;2084471;28;20011;-40
2022/05/14 05:17:44;;;;;;;;;;;;;;;22.21;57.05;99984.28;2082059;28;19931;-40
2022/05/14 05:18:44;;;;;;;;;;;;;;;22.21;57.08;99979.66;2084788;28;19919;-40
2022/05/14 05:19:44;;;;;;;;;;;;;;;22.21;56.99;99984.28;2079160;28;19916;-40
2022/05/14 05:20:48;;;;;;;;;;;;;;;22.20;57.00;99980.69;2085231;28;19916;-40
2022/05/14 05:21:49;;;;;;;;;;;;;;;22.20;57.04;99979.84;2083839;28;19916;-40